Volkermarkt, Austria
Current Conditions -  °F | °C
As of 1:20 PM on Wednesday 26 Nov 2014 (Local Time) from LOWK Reporting Station
Overcast Overcast  
Wind Chill: 36°   Ceiling: 2000
Heat Index: 39°   Visibility: 6mi
Dew Point: 36°   Wind: 5mph
Humidity: 87%   Direction: 110°ESE
Pressure: 30.15"   Gusts: NA
Location:  46.66°N, 14.63°E
Report Text: LOWK 261120Z 11004KT 050V150 9999 FEW008 SCT012 OVC020 04/02 Q1021 TEMPO FEW007 BKN012
Loading
Personal Weather Stations






























Interactive Weather Map New forecast layout! Learn more

10-Day Weather Forecast

Advertisements
Track Severe Weather on mobile